createdAt,value
2023-02-22T00:01:36.222Z,12.68
2023-02-22T00:04:05.437Z,11.98
2023-02-22T00:06:32.583Z,12.73
2023-02-22T00:08:59.841Z,11.82
2023-02-22T00:11:26.573Z,12.77
2023-02-22T00:13:57.031Z,13.10
2023-02-22T00:16:25.247Z,12.73
2023-02-22T00:18:52.409Z,11.30
2023-02-22T00:21:19.303Z,12.00
2023-02-22T00:23:47.341Z,13.35
2023-02-22T00:26:18.161Z,13.88
2023-02-22T00:28:49.908Z,11.65
2023-02-22T00:31:16.626Z,13.65
2023-02-22T00:33:43.598Z,11.48
2023-02-22T00:36:12.496Z,11.75
2023-02-22T00:38:40.344Z,12.13
2023-02-22T00:41:07.161Z,11.18
2023-02-22T00:43:34.030Z,12.52
2023-02-22T00:46:00.813Z,11.38
2023-02-22T00:48:28.205Z,11.07
2023-02-22T00:50:55.261Z,10.52
2023-02-22T00:53:25.863Z,10.80
2023-02-22T00:55:53.477Z,11.63
2023-02-22T00:58:21.066Z,10.95
2023-02-22T01:00:47.987Z,12.57
2023-02-22T01:03:17.278Z,12.85
2023-02-22T01:05:43.888Z,14.27
2023-02-22T01:08:12.070Z,12.98
2023-02-22T01:10:39.795Z,14.25
2023-02-22T01:13:08.873Z,14.13
2023-02-22T01:15:37.481Z,15.60
2023-02-22T01:18:05.114Z,15.43
2023-02-22T01:20:32.612Z,14.27
2023-02-22T01:23:01.470Z,11.32
2023-02-22T01:25:31.802Z,11.43
2023-02-22T01:28:00.626Z,11.10
2023-02-22T01:30:30.877Z,11.80
2023-02-22T01:32:57.927Z,11.27
2023-02-22T01:35:28.239Z,12.10
2023-02-22T01:37:55.298Z,10.50
2023-02-22T01:40:25.713Z,11.55
2023-02-22T01:42:54.384Z,9.88
2023-02-22T01:45:29.936Z,14.00
2023-02-22T01:48:26.067Z,12.30
2023-02-22T01:50:54.973Z,13.23
2023-02-22T01:53:30.276Z,13.50
2023-02-22T01:55:57.826Z,14.43
2023-02-22T01:58:27.988Z,13.52
2023-02-22T02:00:55.037Z,14.37
2023-02-22T02:03:27.616Z,14.52
2023-02-22T02:05:58.040Z,14.23
2023-02-22T02:09:04.305Z,15.40
2023-02-22T02:11:32.315Z,14.50
2023-02-22T02:13:59.173Z,13.73
2023-02-22T02:16:40.023Z,14.98
2023-02-22T02:19:20.171Z,14.35
2023-02-22T02:22:13.381Z,14.68
2023-02-22T02:25:03.689Z,14.45
2023-02-22T02:27:52.788Z,14.68
2023-02-22T02:30:37.665Z,15.20
2023-02-22T02:33:21.646Z,15.50
2023-02-22T02:35:57.356Z,15.65
2023-02-22T02:38:55.640Z,14.50
2023-02-22T02:41:32.445Z,15.50
2023-02-22T02:44:01.570Z,15.68
2023-02-22T02:46:32.210Z,16.90
2023-02-22T02:49:07.392Z,15.40
2023-02-22T02:51:41.546Z,15.55
2023-02-22T02:54:10.118Z,16.17
2023-02-22T02:56:36.470Z,16.52
2023-02-22T02:59:03.064Z,14.63
2023-02-22T03:01:33.340Z,16.33
2023-02-22T03:04:36.167Z,16.48
2023-02-22T03:07:23.975Z,16.13
2023-02-22T03:09:59.270Z,17.45
2023-02-22T03:12:49.806Z,16.52
2023-02-22T03:15:44.543Z,16.90
2023-02-22T03:18:22.808Z,15.82
2023-02-22T03:21:00.637Z,16.15
2023-02-22T03:23:55.162Z,16.75
2023-02-22T03:26:29.591Z,16.15
2023-02-22T03:28:56.209Z,16.00
2023-02-22T03:31:26.483Z,16.88
2023-02-22T03:33:57.784Z,15.50
2023-02-22T03:36:38.850Z,15.38
2023-02-22T03:39:10.657Z,16.05
2023-02-22T03:41:39.668Z,14.73
2023-02-22T03:44:14.726Z,16.30
2023-02-22T03:46:45.246Z,16.23
2023-02-22T03:49:25.262Z,17.27
2023-02-22T03:51:51.913Z,15.90
2023-02-22T03:54:18.362Z,16.17
2023-02-22T03:56:57.110Z,16.60
2023-02-22T03:59:27.414Z,15.80
2023-02-22T04:01:54.737Z,16.25
2023-02-22T04:04:21.706Z,17.13
2023-02-22T04:06:48.088Z,18.27
2023-02-22T04:09:15.374Z,17.98
2023-02-22T04:11:42.064Z,18.50
2023-02-22T04:14:08.471Z,19.13
2023-02-22T04:16:34.877Z,19.27
2023-02-22T04:19:01.237Z,19.65
2023-02-22T04:21:27.717Z,17.55
2023-02-22T04:23:54.907Z,17.17
2023-02-22T04:26:21.179Z,18.42
2023-02-22T04:28:47.492Z,18.48
2023-02-22T04:31:13.933Z,19.02
2023-02-22T04:33:40.293Z,17.73
2023-02-22T04:36:07.505Z,19.27
2023-02-22T04:38:33.818Z,19.40
2023-02-22T04:41:00.153Z,18.58
2023-02-22T04:43:26.454Z,20.08
2023-02-22T04:45:52.768Z,19.58
2023-02-22T04:48:19.218Z,18.98
2023-02-22T04:50:45.550Z,19.90
2023-02-22T04:53:11.829Z,19.02
2023-02-22T04:55:38.184Z,20.58
2023-02-22T04:58:04.522Z,19.90
2023-02-22T05:00:30.827Z,19.60
2023-02-22T05:02:57.552Z,20.10
2023-02-22T05:05:24.051Z,19.08
2023-02-22T05:07:50.975Z,19.58
2023-02-22T05:10:17.533Z,20.45
2023-02-22T05:12:43.870Z,19.60
2023-02-22T05:15:11.380Z,19.45
2023-02-22T05:17:37.686Z,19.10
2023-02-22T05:20:04.925Z,21.40
2023-02-22T05:22:31.230Z,20.30
2023-02-22T05:24:57.584Z,20.70
2023-02-22T05:27:23.992Z,18.48
2023-02-22T05:29:50.451Z,18.00
2023-02-22T05:32:16.794Z,20.55
2023-02-22T05:34:43.123Z,19.33
2023-02-22T05:37:09.416Z,26.48
2023-02-22T05:39:35.727Z,18.77
2023-02-22T05:42:02.003Z,18.27
2023-02-22T05:44:28.303Z,17.70
2023-02-22T05:46:54.602Z,17.80
2023-02-22T05:49:20.937Z,18.60
2023-02-22T05:51:47.311Z,18.92
2023-02-22T05:54:13.618Z,19.85
2023-02-22T05:56:39.941Z,21.02
2023-02-22T05:59:06.301Z,18.30
2023-02-22T06:01:32.632Z,19.25
2023-02-22T06:03:58.936Z,18.13
2023-02-22T06:06:25.240Z,18.15
2023-02-22T06:08:51.580Z,21.23
2023-02-22T06:11:19.624Z,18.65
2023-02-22T06:13:50.498Z,20.90
2023-02-22T06:16:16.902Z,16.58
2023-02-22T06:18:43.271Z,19.77
2023-02-22T06:21:09.592Z,17.88
2023-02-22T06:23:35.933Z,17.45
2023-02-22T06:26:02.279Z,15.80
2023-02-22T06:28:28.588Z,17.75
2023-02-22T06:30:54.879Z,16.90
2023-02-22T06:33:21.204Z,17.88
2023-02-22T06:35:47.550Z,18.83
2023-02-22T06:38:22.097Z,18.33
2023-02-22T06:40:48.390Z,16.35
2023-02-22T06:43:14.717Z,14.85
2023-02-22T06:45:41.036Z,15.98
2023-02-22T06:48:07.411Z,16.77
2023-02-22T06:50:35.864Z,17.30
2023-02-22T06:53:02.498Z,16.00
2023-02-22T06:55:31.549Z,17.50
2023-02-22T06:57:58.825Z,16.83
2023-02-22T07:00:27.626Z,15.65
2023-02-22T07:02:54.804Z,17.58
2023-02-22T07:05:23.497Z,14.32
2023-02-22T07:07:55.238Z,17.73
2023-02-22T07:10:27.782Z,15.73
2023-02-22T07:12:54.607Z,15.15
2023-02-22T07:15:23.612Z,16.02
2023-02-22T07:17:50.740Z,16.08
2023-02-22T07:20:18.303Z,14.93
2023-02-22T07:22:44.602Z,15.48
2023-02-22T07:25:11.333Z,16.00
2023-02-22T07:27:39.504Z,15.85
2023-02-22T07:30:07.587Z,17.73
2023-02-22T07:32:34.077Z,17.45
2023-02-22T07:35:02.789Z,15.57
2023-02-22T07:37:29.781Z,15.95
2023-02-22T07:39:56.088Z,16.55
2023-02-22T07:42:22.437Z,17.98
2023-02-22T07:44:48.745Z,15.38
2023-02-22T07:47:15.100Z,14.98
2023-02-22T07:49:41.385Z,16.05
2023-02-22T07:52:07.697Z,15.43
2023-02-22T07:54:34.047Z,15.32
2023-02-22T07:57:00.352Z,14.98
2023-02-22T07:59:26.707Z,15.57
2023-02-22T08:01:52.979Z,16.63
2023-02-22T08:04:19.268Z,16.08
2023-02-22T08:06:46.215Z,18.05
2023-02-22T08:09:12.638Z,16.23
2023-02-22T08:11:38.955Z,16.15
2023-02-22T08:14:05.339Z,17.05
2023-02-22T08:16:31.662Z,16.55
2023-02-22T08:18:57.955Z,16.52
2023-02-22T08:21:24.348Z,16.90
2023-02-22T08:23:54.111Z,17.45
2023-02-22T08:26:20.750Z,17.70
2023-02-22T08:28:48.602Z,15.82
2023-02-22T08:31:15.064Z,17.20
2023-02-22T08:33:42.350Z,16.48
2023-02-22T08:36:09.170Z,16.23
2023-02-22T08:38:35.539Z,15.73
2023-02-22T08:41:01.890Z,16.00
2023-02-22T08:43:28.562Z,17.00
2023-02-22T08:45:57.455Z,16.20
2023-02-22T08:48:24.303Z,16.25
2023-02-22T08:50:50.853Z,16.23
2023-02-22T08:53:17.599Z,14.63
2023-02-22T08:55:44.947Z,15.02
2023-02-22T08:58:11.982Z,15.30
2023-02-22T09:00:39.788Z,13.63
2023-02-22T09:03:09.372Z,14.98
2023-02-22T09:05:36.049Z,14.50
2023-02-22T09:08:02.798Z,14.63
2023-02-22T09:10:31.597Z,15.15
2023-02-22T09:13:00.626Z,14.27
2023-02-22T09:15:27.423Z,14.45
2023-02-22T09:17:54.328Z,13.60
2023-02-22T09:20:23.382Z,12.80
2023-02-22T09:22:50.343Z,12.65
2023-02-22T09:25:18.146Z,13.82
2023-02-22T09:27:47.766Z,13.35
2023-02-22T09:30:20.339Z,12.65
2023-02-22T09:32:46.868Z,12.00
2023-02-22T09:35:13.265Z,12.13
2023-02-22T09:37:39.663Z,12.38
2023-02-22T09:40:09.744Z,12.13
2023-02-22T09:42:45.493Z,9.68
2023-02-22T09:45:23.231Z,12.65
2023-02-22T09:48:19.426Z,13.20
2023-02-22T09:50:52.711Z,14.48
2023-02-22T09:53:21.894Z,11.98
2023-02-22T09:55:51.435Z,12.60
2023-02-22T09:58:26.316Z,12.52
2023-02-22T10:01:00.753Z,14.55
2023-02-22T10:03:34.473Z,13.35
2023-02-22T10:06:05.116Z,12.48
2023-02-22T10:08:36.123Z,12.93
2023-02-22T10:11:19.495Z,11.73
2023-02-22T10:14:14.436Z,10.45
2023-02-22T10:16:59.290Z,11.90
2023-02-22T10:19:28.392Z,11.65
2023-02-22T10:22:26.372Z,11.57
2023-02-22T10:25:17.939Z,13.02
2023-02-22T10:27:59.039Z,13.57
2023-02-22T10:30:34.217Z,12.07
2023-02-22T10:33:22.102Z,12.65
2023-02-22T10:35:48.717Z,13.60
2023-02-22T10:38:35.094Z,12.43
2023-02-22T10:41:10.557Z,11.93
2023-02-22T10:43:38.495Z,11.13
2023-02-22T10:46:09.187Z,13.35
2023-02-22T10:48:38.526Z,12.07
2023-02-22T10:51:08.399Z,11.80
2023-02-22T10:53:37.911Z,12.20
2023-02-22T10:56:23.385Z,11.70
2023-02-22T10:58:57.570Z,11.85
2023-02-22T11:01:35.954Z,11.43
2023-02-22T11:04:21.854Z,11.70
2023-02-22T11:07:06.327Z,11.52
2023-02-22T11:09:46.967Z,12.25
2023-02-22T11:12:41.149Z,11.15
2023-02-22T11:15:16.346Z,10.82
2023-02-22T11:17:44.776Z,11.82
2023-02-22T11:20:25.429Z,11.43
2023-02-22T11:22:57.601Z,11.40
2023-02-22T11:25:35.837Z,11.50
2023-02-22T11:28:16.310Z,10.80
2023-02-22T11:30:51.999Z,11.68
2023-02-22T11:33:25.834Z,11.38
2023-02-22T11:35:59.978Z,11.43
2023-02-22T11:38:28.136Z,12.30
2023-02-22T11:41:15.101Z,11.23
2023-02-22T11:43:47.275Z,12.10
2023-02-22T11:46:17.952Z,12.20
2023-02-22T11:48:53.634Z,12.23
2023-02-22T11:51:33.967Z,12.43
2023-02-22T11:54:07.023Z,11.63
2023-02-22T11:56:40.843Z,17.48
2023-02-22T11:59:38.526Z,11.30
2023-02-22T12:02:43.702Z,10.80
2023-02-22T12:05:37.132Z,10.77
2023-02-22T12:08:13.870Z,11.93
2023-02-22T12:11:00.271Z,10.65
2023-02-22T12:13:52.225Z,10.30
2023-02-22T12:16:35.428Z,10.38
2023-02-22T12:19:15.061Z,10.43
2023-02-22T12:21:45.056Z,12.75
2023-02-22T12:24:19.233Z,10.52
2023-02-22T12:26:53.428Z,10.18
2023-02-22T12:29:25.701Z,9.98
2023-02-22T12:31:57.633Z,9.85
2023-02-22T12:34:40.331Z,10.20
2023-02-22T12:37:40.463Z,9.85
2023-02-22T12:40:23.188Z,10.65
2023-02-22T12:42:55.329Z,10.32
2023-02-22T12:45:44.932Z,9.63
2023-02-22T12:48:41.760Z,10.63
2023-02-22T12:51:26.028Z,9.93
2023-02-22T12:54:01.121Z,8.30
2023-02-22T12:56:40.867Z,9.07
2023-02-22T12:59:35.854Z,9.43
2023-02-22T13:02:17.966Z,9.38
2023-02-22T13:04:44.399Z,8.00
2023-02-22T13:07:48.016Z,9.32
2023-02-22T13:10:26.378Z,8.35
2023-02-22T13:13:19.450Z,9.52
2023-02-22T13:15:57.818Z,8.93
2023-02-22T13:18:30.605Z,8.40
2023-02-22T13:21:03.317Z,8.80
2023-02-22T13:24:14.528Z,9.05
2023-02-22T13:26:50.040Z,9.32
2023-02-22T13:29:20.932Z,9.40
2023-02-22T13:31:59.366Z,8.77
2023-02-22T13:34:44.496Z,8.25
2023-02-22T13:37:45.583Z,8.77
2023-02-22T13:40:35.939Z,9.07
2023-02-22T13:43:22.686Z,8.17
2023-02-22T13:46:26.554Z,9.32
2023-02-22T13:49:17.330Z,9.05
2023-02-22T13:51:50.662Z,9.60
2023-02-22T13:54:30.051Z,9.90
2023-02-22T13:56:57.359Z,9.20
2023-02-22T13:59:28.730Z,9.68
2023-02-22T14:01:56.077Z,10.35
2023-02-22T14:04:28.601Z,10.05
2023-02-22T14:06:56.514Z,9.90
2023-02-22T14:09:45.443Z,8.52
2023-02-22T14:12:29.960Z,9.68
2023-02-22T14:15:28.360Z,10.15
2023-02-22T14:18:04.957Z,8.75
2023-02-22T14:20:40.534Z,9.27
2023-02-22T14:23:25.723Z,10.57
2023-02-22T14:25:52.167Z,9.43
2023-02-22T14:28:39.370Z,11.43
2023-02-22T14:31:35.939Z,8.85
2023-02-22T14:34:07.793Z,9.23
2023-02-22T14:37:00.950Z,9.20
2023-02-22T14:39:38.178Z,9.95
2023-02-22T14:42:27.857Z,9.98
2023-02-22T14:45:03.012Z,10.30
2023-02-22T14:47:54.255Z,9.48
2023-02-22T14:53:02.954Z,10.63
2023-02-22T14:55:33.091Z,9.23
2023-02-22T14:58:08.451Z,10.70
2023-02-22T15:00:45.752Z,10.13
2023-02-22T15:03:37.103Z,9.23
2023-02-22T15:06:14.784Z,10.77
2023-02-22T15:08:42.320Z,9.10
2023-02-22T15:11:32.646Z,9.95
2023-02-22T15:14:01.286Z,8.80
2023-02-22T15:16:31.188Z,8.90
2023-02-22T15:18:59.889Z,9.32
2023-02-22T15:21:28.732Z,10.27
2023-02-22T15:24:02.738Z,9.27
2023-02-22T15:26:38.826Z,8.73
2023-02-22T15:29:19.311Z,6.90
2023-02-22T15:31:48.334Z,9.65
2023-02-22T15:34:14.871Z,9.02
2023-02-22T15:36:43.428Z,8.93
2023-02-22T15:39:20.051Z,8.55
2023-02-22T15:41:46.565Z,8.82
2023-02-22T15:44:28.009Z,8.82
2023-02-22T15:46:56.404Z,8.45
2023-02-22T15:49:23.858Z,9.10
2023-02-22T15:52:03.979Z,9.60
2023-02-22T15:54:42.057Z,9.30
2023-02-22T15:57:09.272Z,9.25
2023-02-22T15:59:43.738Z,10.32
2023-02-22T16:02:23.171Z,11.13
2023-02-22T16:04:59.743Z,10.95
2023-02-22T16:07:26.289Z,11.20
2023-02-22T16:09:52.973Z,11.18
2023-02-22T16:12:22.274Z,12.00
2023-02-22T16:14:49.957Z,13.73
2023-02-22T16:17:29.437Z,12.30
2023-02-22T16:19:57.473Z,11.50
2023-02-22T16:22:33.985Z,11.15
2023-02-22T16:25:18.510Z,12.43
2023-02-22T16:27:48.803Z,12.80
2023-02-22T16:30:24.466Z,12.63
2023-02-22T16:32:54.226Z,12.40
2023-02-22T16:35:20.927Z,11.55
2023-02-22T16:37:50.707Z,11.13
2023-02-22T16:40:57.869Z,11.60
2023-02-22T16:43:29.328Z,12.02
2023-02-22T16:45:55.718Z,11.10
2023-02-22T16:48:27.403Z,12.23
2023-02-22T16:50:55.319Z,10.82
2023-02-22T16:53:24.782Z,11.77
2023-02-22T16:55:57.381Z,12.20
2023-02-22T16:58:27.808Z,12.25
2023-02-22T17:00:57.113Z,12.60
2023-02-22T17:03:24.728Z,11.43
2023-02-22T17:05:51.436Z,11.48
2023-02-22T17:08:17.790Z,12.32
2023-02-22T17:10:46.139Z,12.32
2023-02-22T17:13:23.530Z,12.35
2023-02-22T17:15:50.979Z,14.07
2023-02-22T17:18:22.676Z,12.50
2023-02-22T17:20:52.739Z,15.30
2023-02-22T17:23:19.844Z,12.40
2023-02-22T17:25:50.048Z,13.27
2023-02-22T17:28:16.751Z,12.53
2023-02-22T17:30:45.026Z,13.35
2023-02-22T17:33:16.598Z,12.18
2023-02-22T17:35:43.055Z,13.15
2023-02-22T17:38:09.894Z,13.90
2023-02-22T17:40:39.008Z,12.70
2023-02-22T17:43:08.642Z,12.75
2023-02-22T17:45:38.482Z,13.77
2023-02-22T17:48:05.571Z,13.65
2023-02-22T17:50:31.868Z,14.02
2023-02-22T17:53:01.837Z,13.77
2023-02-22T17:55:28.176Z,13.00
2023-02-22T17:57:58.834Z,12.98
2023-02-22T18:00:33.180Z,14.27
2023-02-22T18:03:06.589Z,13.60
2023-02-22T18:05:38.639Z,13.10
2023-02-22T18:08:05.033Z,14.65
2023-02-22T18:10:31.742Z,14.02
2023-02-22T18:13:01.781Z,14.75
2023-02-22T18:15:29.632Z,14.00
2023-02-22T18:17:56.872Z,14.63
2023-02-22T18:20:30.974Z,14.95
2023-02-22T18:22:58.903Z,16.05
2023-02-22T18:25:26.436Z,13.93
2023-02-22T18:27:54.788Z,16.35
2023-02-22T18:30:21.757Z,15.85
2023-02-22T18:32:48.074Z,14.55
2023-02-22T18:35:14.406Z,15.80
2023-02-22T18:37:40.720Z,16.23
2023-02-22T18:40:10.322Z,21.77
2023-02-22T18:42:38.329Z,18.83
2023-02-22T18:45:06.083Z,20.55
2023-02-22T18:47:38.572Z,19.42
2023-02-22T18:50:05.417Z,17.30
2023-02-22T18:52:33.222Z,15.30
2023-02-22T18:54:59.866Z,15.02
2023-02-22T18:57:26.174Z,14.10
2023-02-22T18:59:52.477Z,15.90
2023-02-22T19:02:21.744Z,15.70
2023-02-22T19:04:48.153Z,15.93
2023-02-22T19:07:17.937Z,15.90
2023-02-22T19:09:44.649Z,16.02
2023-02-22T19:12:11.672Z,16.48
2023-02-22T19:14:38.124Z,15.63
2023-02-22T19:17:07.219Z,16.25
2023-02-22T19:19:33.582Z,16.77
2023-02-22T19:21:59.971Z,17.35
2023-02-22T19:24:26.274Z,15.57
2023-02-22T19:26:57.122Z,17.30
2023-02-22T19:29:23.658Z,16.13
2023-02-22T19:31:51.569Z,16.08
2023-02-22T19:34:21.640Z,15.68
2023-02-22T19:36:48.108Z,15.68
2023-02-22T19:39:16.652Z,16.52
2023-02-22T19:41:43.241Z,17.80
2023-02-22T19:44:09.610Z,18.42
2023-02-22T19:46:36.443Z,17.40
2023-02-22T19:49:03.117Z,19.25
2023-02-22T19:51:30.643Z,19.63
2023-02-22T19:53:59.514Z,20.35
2023-02-22T19:56:30.076Z,19.52
2023-02-22T19:59:02.265Z,20.10
2023-02-22T20:01:32.835Z,19.77
2023-02-22T20:04:01.864Z,21.15
2023-02-22T20:06:30.936Z,21.55
2023-02-22T20:08:58.155Z,22.60
2023-02-22T20:11:24.991Z,22.60
2023-02-22T20:13:52.349Z,23.55
2023-02-22T20:16:18.718Z,24.00
2023-02-22T20:18:46.641Z,23.50
2023-02-22T20:21:19.682Z,24.85
2023-02-22T20:23:46.260Z,25.08
2023-02-22T20:26:18.952Z,25.42
2023-02-22T20:28:46.298Z,27.15
2023-02-22T20:31:14.375Z,26.10
2023-02-22T20:33:41.997Z,27.08
2023-02-22T20:36:14.687Z,25.63
2023-02-22T20:38:41.517Z,28.75
2023-02-22T20:41:12.433Z,28.13
2023-02-22T20:43:41.864Z,29.92
2023-02-22T20:46:08.271Z,27.20
2023-02-22T20:48:34.844Z,27.50
2023-02-22T20:51:09.241Z,28.70
2023-02-22T20:53:35.988Z,26.58
2023-02-22T20:56:02.329Z,26.63
2023-02-22T20:58:29.132Z,27.80
2023-02-22T21:00:55.451Z,26.75
2023-02-22T21:03:21.890Z,25.65
2023-02-22T21:05:48.198Z,26.85
2023-02-22T21:08:17.847Z,26.25
2023-02-22T21:10:46.116Z,24.85
2023-02-22T21:13:13.110Z,26.23
2023-02-22T21:15:43.327Z,25.40
2023-02-22T21:18:10.809Z,27.70
2023-02-22T21:20:42.740Z,26.00
2023-02-22T21:23:13.442Z,29.30
2023-02-22T21:25:46.880Z,28.38
2023-02-22T21:28:13.191Z,28.63
2023-02-22T21:30:39.643Z,31.48
2023-02-22T21:33:06.609Z,29.58
2023-02-22T21:35:35.979Z,29.25
2023-02-22T21:38:02.560Z,28.13
2023-02-22T21:40:28.905Z,29.42
2023-02-22T21:42:55.242Z,29.33
2023-02-22T21:45:22.588Z,29.38
2023-02-22T21:47:49.687Z,29.35
2023-02-22T21:50:17.984Z,28.95
2023-02-22T21:52:46.908Z,31.60
2023-02-22T21:55:14.523Z,32.05
2023-02-22T21:57:42.349Z,31.50
2023-02-22T22:00:17.142Z,31.23
2023-02-22T22:02:48.005Z,32.97
2023-02-22T22:05:17.138Z,31.88
2023-02-22T22:07:44.515Z,30.05
2023-02-22T22:10:16.655Z,31.58
2023-02-22T22:12:46.042Z,30.38
2023-02-22T22:15:16.342Z,31.10
2023-02-22T22:17:43.819Z,29.50
2023-02-22T22:20:14.571Z,29.33
2023-02-22T22:22:43.332Z,26.75
2023-02-22T22:25:13.259Z,29.77
2023-02-22T22:27:40.043Z,29.27
2023-02-22T22:30:07.843Z,29.58
2023-02-22T22:32:34.865Z,28.92
2023-02-22T22:35:01.300Z,27.63
2023-02-22T22:37:28.738Z,28.05
2023-02-22T22:39:55.574Z,29.95
2023-02-22T22:42:23.629Z,29.15
2023-02-22T22:44:50.621Z,29.90
2023-02-22T22:47:20.757Z,29.08
2023-02-22T22:49:47.734Z,29.70
2023-02-22T22:52:16.327Z,30.60
2023-02-22T22:54:43.503Z,31.10
2023-02-22T22:57:11.147Z,29.73
2023-02-22T22:59:37.464Z,29.52
2023-02-22T23:02:09.480Z,30.30
2023-02-22T23:04:37.885Z,30.80
2023-02-22T23:07:06.442Z,29.65
2023-02-22T23:09:34.804Z,27.75
2023-02-22T23:12:09.907Z,29.70
2023-02-22T23:14:46.137Z,28.15
2023-02-22T23:17:15.171Z,28.20
2023-02-22T23:19:44.958Z,29.17
2023-02-22T23:22:13.972Z,28.88
2023-02-22T23:24:40.644Z,29.35
2023-02-22T23:27:07.456Z,28.75
2023-02-22T23:29:39.427Z,30.52
2023-02-22T23:32:06.135Z,31.42
2023-02-22T23:34:33.424Z,30.05
2023-02-22T23:36:59.779Z,28.60
2023-02-22T23:39:26.212Z,29.13
2023-02-22T23:41:58.975Z,29.77
2023-02-22T23:44:26.996Z,27.63
2023-02-22T23:46:57.003Z,28.17
2023-02-22T23:49:26.268Z,31.75
2023-02-22T23:51:53.007Z,27.77
2023-02-22T23:54:21.218Z,31.40
2023-02-22T23:56:56.225Z,30.40
2023-02-22T23:59:24.748Z,32.67
